TimeCDT,TemperatureF,Dew PointF,Humidity,Sea Level PressureIn,VisibilityMPH,Wind Direction,Wind SpeedMPH,Gust SpeedMPH,PrecipitationIn,Events,Conditions,WindDirDegrees,DateUTC
12:15 AM,44.6,28.4,53,30.13,10.0,SSE,8.1,-,N/A,,Partly Cloudy,160,2013-05-06 05:15:00
12:35 AM,41.0,28.4,61,30.13,10.0,South,6.9,-,N/A,,Partly Cloudy,170,2013-05-06 05:35:00
12:55 AM,42.8,28.4,57,30.13,10.0,Calm,Calm,-,N/A,,Partly Cloudy,0,2013-05-06 05:55:00
1:15 AM,42.8,26.6,53,30.13,10.0,Calm,Calm,-,N/A,,Partly Cloudy,0,2013-05-06 06:15:00
1:35 AM,39.2,28.4,65,30.13,10.0,West,4.6,-,N/A,,Partly Cloudy,270,2013-05-06 06:35:00
1:55 AM,37.4,26.6,65,30.13,10.0,WNW,4.6,-,N/A,,Partly Cloudy,290,2013-05-06 06:55:00
2:15 AM,35.6,26.6,70,30.13,10.0,Calm,Calm,-,N/A,,Partly Cloudy,0,2013-05-06 07:15:00
2:35 AM,32.0,26.6,80,30.13,10.0,Calm,Calm,-,N/A,,Scattered Clouds,0,2013-05-06 07:35:00
2:55 AM,32.0,26.6,80,30.13,10.0,Calm,Calm,-,N/A,,Mostly Cloudy,0,2013-05-06 07:55:00
3:15 AM,32.0,26.6,80,30.13,10.0,Calm,Calm,-,N/A,,Mostly Cloudy,0,2013-05-06 08:15:00
3:35 AM,32.0,26.6,80,30.12,10.0,Calm,Calm,-,N/A,,Scattered Clouds,0,2013-05-06 08:35:00
3:55 AM,30.2,26.6,86,30.12,10.0,WSW,3.5,-,N/A,,Mostly Cloudy,250,2013-05-06 08:55:00
4:15 AM,32.0,24.8,75,30.12,10.0,SSW,3.5,-,N/A,,Scattered Clouds,210,2013-05-06 09:15:00
4:35 AM,28.4,24.8,86,30.12,10.0,Calm,Calm,-,N/A,,Partly Cloudy,0,2013-05-06 09:35:00
4:55 AM,30.2,24.8,80,30.12,10.0,Calm,Calm,-,N/A,,Partly Cloudy,0,2013-05-06 09:55:00
5:15 AM,32.0,24.8,75,30.12,10.0,WSW,3.5,-,N/A,,Partly Cloudy,240,2013-05-06 10:15:00
5:35 AM,28.4,24.8,86,30.12,10.0,Calm,Calm,-,N/A,,Clear,0,2013-05-06 10:35:00
5:55 AM,30.2,24.8,80,30.12,10.0,Calm,Calm,-,N/A,,Clear,0,2013-05-06 10:55:00
6:15 AM,30.2,24.8,80,30.12,10.0,SW,3.5,-,N/A,,Clear,230,2013-05-06 11:15:00
6:35 AM,28.4,24.8,86,30.12,10.0,WSW,4.6,-,N/A,,Clear,240,2013-05-06 11:35:00
6:55 AM,32.0,24.8,75,30.12,10.0,WSW,3.5,-,N/A,,Clear,250,2013-05-06 11:55:00
7:15 AM,33.8,26.6,75,30.12,10.0,SW,5.8,-,N/A,,Clear,230,2013-05-06 12:15:00
7:35 AM,35.6,28.4,75,30.12,10.0,WSW,4.6,-,N/A,,Clear,250,2013-05-06 12:35:00
7:55 AM,37.4,28.4,70,30.12,10.0,WSW,3.5,-,N/A,,Clear,240,2013-05-06 12:55:00
8:35 AM,42.8,28.4,57,30.12,10.0,WSW,3.5,-,N/A,,Clear,250,2013-05-06 13:35:00
8:55 AM,46.4,28.4,50,30.12,10.0,WSW,4.6,-,N/A,,Clear,250,2013-05-06 13:55:00
9:15 AM,48.2,28.4,46,30.12,10.0,WSW,5.8,-,N/A,,Clear,240,2013-05-06 14:15:00
9:35 AM,50.0,28.4,43,30.12,10.0,WSW,5.8,-,N/A,,Clear,240,2013-05-06 14:35:00
9:55 AM,53.6,28.4,38,30.11,10.0,WSW,4.6,-,N/A,,Clear,250,2013-05-06 14:55:00
10:15 AM,55.4,28.4,36,30.11,10.0,WSW,4.6,-,N/A,,Clear,250,2013-05-06 15:15:00
10:35 AM,59.0,30.2,34,30.11,10.0,West,4.6,-,N/A,,Clear,260,2013-05-06 15:35:00
10:55 AM,62.6,28.4,27,30.10,10.0,WNW,3.5,-,N/A,,Clear,290,2013-05-06 15:55:00
11:15 AM,62.6,28.4,27,30.10,10.0,SW,5.8,-,N/A,,Clear,220,2013-05-06 16:15:00
11:35 AM,64.4,28.4,26,30.10,10.0,North,3.5,-,N/A,,Clear,10,2013-05-06 16:35:00
11:55 AM,64.4,28.4,26,30.10,10.0,ENE,8.1,-,N/A,,Clear,70,2013-05-06 16:55:00
12:15 PM,66.2,28.4,24,30.10,10.0,NW,3.5,-,N/A,,Clear,320,2013-05-06 17:15:00
12:35 PM,66.2,28.4,24,30.09,10.0,NNW,4.6,-,N/A,,Clear,330,2013-05-06 17:35:00
12:55 PM,66.2,28.4,24,30.09,10.0,North,5.8,-,N/A,,Clear,360,2013-05-06 17:55:00
1:15 PM,66.2,28.4,24,30.08,10.0,SSE,3.5,-,N/A,,Clear,150,2013-05-06 18:15:00
1:35 PM,66.2,28.4,24,30.08,10.0,SSE,4.6,-,N/A,,Clear,160,2013-05-06 18:35:00
1:55 PM,68.0,28.4,23,30.07,10.0,East,5.8,-,N/A,,Clear,90,2013-05-06 18:55:00
2:15 PM,68.0,28.4,23,30.06,10.0,NE,10.4,-,N/A,,Clear,40,2013-05-06 19:15:00
2:35 PM,68.0,26.6,21,30.05,10.0,NNW,3.5,-,N/A,,Clear,340,2013-05-06 19:35:00
2:55 PM,68.0,26.6,21,30.05,10.0,East,3.5,-,N/A,,Clear,100,2013-05-06 19:55:00
3:15 PM,69.8,28.4,21,30.05,10.0,East,8.1,-,N/A,,Clear,80,2013-05-06 20:15:00
3:35 PM,68.0,26.6,21,30.04,10.0,West,4.6,-,N/A,,Clear,280,2013-05-06 20:35:00
3:55 PM,69.8,26.6,20,30.03,10.0,ENE,8.1,-,N/A,,Clear,60,2013-05-06 20:55:00
4:15 PM,71.6,26.6,19,30.03,10.0,East,3.5,-,N/A,,Clear,90,2013-05-06 21:15:00
4:35 PM,71.6,26.6,19,30.02,10.0,NE,8.1,-,N/A,,Clear,40,2013-05-06 21:35:00
4:55 PM,69.8,24.8,18,30.01,10.0,ENE,6.9,-,N/A,,Clear,60,2013-05-06 21:55:00
5:15 PM,71.6,26.6,19,30.01,10.0,NNE,6.9,-,N/A,,Clear,30,2013-05-06 22:15:00
5:55 PM,71.6,24.8,17,30.00,10.0,Calm,Calm,-,N/A,,Clear,0,2013-05-06 22:55:00
6:15 PM,69.8,24.8,18,30.00,10.0,Calm,Calm,-,N/A,,Clear,0,2013-05-06 23:15:00
6:35 PM,71.6,28.4,20,29.99,10.0,East,8.1,-,N/A,,Clear,80,2013-05-06 23:35:00
6:55 PM,69.8,28.4,21,29.99,10.0,SSE,6.9,-,N/A,,Clear,150,2013-05-06 23:55:00
7:15 PM,69.8,28.4,21,29.99,10.0,ESE,5.8,-,N/A,,Clear,120,2013-05-07 00:15:00
7:35 PM,68.0,26.6,21,29.99,10.0,Calm,Calm,-,N/A,,Clear,0,2013-05-07 00:35:00
7:55 PM,68.0,28.4,23,29.99,7.0,East,3.5,-,N/A,,Clear,80,2013-05-07 00:55:00
8:15 PM,66.2,28.4,24,29.98,9.0,ESE,5.8,-,N/A,,Clear,120,2013-05-07 01:15:00
8:35 PM,64.4,32.0,30,29.98,8.0,ESE,4.6,-,N/A,,Clear,120,2013-05-07 01:35:00
8:55 PM,57.2,32.0,38,29.98,10.0,ESE,4.6,-,N/A,,Clear,120,2013-05-07 01:55:00
9:15 PM,53.6,32.0,44,29.98,10.0,SE,5.8,-,N/A,,Clear,130,2013-05-07 02:15:00
9:35 PM,51.8,32.0,47,29.99,9.0,SE,8.1,-,N/A,,Clear,130,2013-05-07 02:35:00
9:55 PM,53.6,30.2,41,29.99,10.0,SE,9.2,-,N/A,,Clear,130,2013-05-07 02:55:00
10:15 PM,50.0,32.0,50,30.00,10.0,SE,8.1,-,N/A,,Clear,130,2013-05-07 03:15:00
10:35 PM,50.0,32.0,50,30.00,10.0,SSE,8.1,-,N/A,,Clear,150,2013-05-07 03:35:00
10:55 PM,48.2,32.0,54,30.00,10.0,SSE,9.2,-,N/A,,Partly Cloudy,150,2013-05-07 03:55:00
11:15 PM,50.0,28.4,43,30.01,10.0,SSE,8.1,-,N/A,,Partly Cloudy,150,2013-05-07 04:15:00
11:35 PM,44.6,30.2,57,30.00,10.0,Calm,Calm,-,N/A,,Clear,0,2013-05-07 04:35:00
11:55 PM,42.8,30.2,61,30.00,10.0,Calm,Calm,-,N/A,,Clear,0,2013-05-07 04:55:00